createdAt,value
2022-10-22T00:01:12.241Z,10.46
2022-10-22T00:03:41.539Z,10.46
2022-10-22T00:06:09.816Z,10.45
2022-10-22T00:08:38.390Z,10.45
2022-10-22T00:11:14.881Z,10.44
2022-10-22T00:13:42.988Z,10.44
2022-10-22T00:16:11.217Z,10.43
2022-10-22T00:18:39.781Z,10.42
2022-10-22T00:21:08.591Z,10.41
2022-10-22T00:23:36.661Z,10.41
2022-10-22T00:26:04.730Z,10.41
2022-10-22T00:28:32.799Z,10.41
2022-10-22T00:31:01.984Z,10.40
2022-10-22T00:33:30.583Z,10.40
2022-10-22T00:35:59.061Z,10.40
2022-10-22T00:38:27.133Z,10.39
2022-10-22T00:40:55.467Z,10.39
2022-10-22T00:43:23.584Z,10.39
2022-10-22T00:45:51.757Z,10.39
2022-10-22T00:48:25.971Z,10.39
2022-10-22T00:51:01.319Z,10.40
2022-10-22T00:53:39.712Z,10.40
2022-10-22T00:56:09.439Z,10.39
2022-10-22T00:58:44.065Z,10.40
2022-10-22T01:01:20.152Z,10.39
2022-10-22T01:03:49.432Z,10.39
2022-10-22T01:06:33.845Z,10.40
2022-10-22T01:09:23.246Z,10.40
2022-10-22T01:12:10.471Z,10.41
2022-10-22T01:14:49.188Z,10.41
2022-10-22T01:17:36.409Z,10.41
2022-10-22T01:20:07.859Z,10.43
2022-10-22T01:23:13.717Z,10.44
2022-10-22T01:25:56.327Z,10.43
2022-10-22T01:28:27.265Z,10.43
2022-10-22T01:30:58.310Z,10.44
2022-10-22T01:33:27.382Z,10.44
2022-10-22T01:35:55.576Z,10.44
2022-10-22T01:38:25.395Z,10.44
2022-10-22T01:40:54.995Z,10.44
2022-10-22T01:43:23.391Z,10.44
2022-10-22T01:45:56.668Z,10.44
2022-10-22T01:48:55.460Z,10.43
2022-10-22T01:51:29.880Z,10.43
2022-10-22T01:54:30.310Z,10.43
2022-10-22T01:57:26.439Z,10.41
2022-10-22T02:00:13.659Z,10.39
2022-10-22T02:02:53.917Z,10.38
2022-10-22T02:05:25.163Z,10.36
2022-10-22T02:08:00.098Z,10.35
2022-10-22T02:10:31.106Z,10.34
2022-10-22T02:13:01.561Z,10.33
2022-10-22T02:15:33.523Z,10.32
2022-10-22T02:18:03.438Z,10.31
2022-10-22T02:20:37.039Z,10.30
2022-10-22T02:23:06.033Z,10.28
2022-10-22T02:25:40.963Z,10.26
2022-10-22T02:28:19.992Z,10.24
2022-10-22T02:30:55.025Z,10.21
2022-10-22T02:33:33.013Z,10.20
2022-10-22T02:36:03.052Z,10.19
2022-10-22T02:38:32.037Z,10.19
2022-10-22T02:41:00.112Z,10.19
2022-10-22T02:43:29.409Z,10.19
2022-10-22T02:45:57.791Z,10.19
2022-10-22T02:48:26.050Z,10.18
2022-10-22T02:50:54.036Z,10.63
2022-10-22T02:53:22.010Z,13.34
2022-10-22T02:55:50.286Z,15.27
2022-10-22T02:58:18.249Z,14.57
2022-10-22T03:00:46.470Z,13.59
2022-10-22T03:03:14.597Z,12.95
2022-10-22T03:05:42.677Z,12.54
2022-10-22T03:08:10.702Z,12.25
2022-10-22T03:10:38.812Z,12.03
2022-10-22T03:13:06.882Z,11.85
2022-10-22T03:15:34.957Z,11.68
2022-10-22T03:18:03.025Z,11.53
2022-10-22T03:20:31.300Z,11.39
2022-10-22T03:22:59.372Z,11.26
2022-10-22T03:25:28.671Z,11.13
2022-10-22T03:28:03.297Z,11.02
2022-10-22T03:30:31.675Z,10.90
2022-10-22T03:32:59.644Z,10.79
2022-10-22T03:35:27.953Z,10.71
2022-10-22T03:37:55.992Z,10.64
2022-10-22T03:40:24.062Z,10.58
2022-10-22T03:42:53.567Z,10.51
2022-10-22T03:45:21.640Z,10.46
2022-10-22T03:47:49.710Z,10.40
2022-10-22T03:50:17.886Z,10.34
2022-10-22T03:52:45.956Z,10.30
2022-10-22T03:55:13.924Z,10.26
2022-10-22T03:57:42.125Z,10.22
2022-10-22T04:00:11.319Z,10.18
2022-10-22T04:02:39.367Z,10.68
2022-10-22T04:05:08.470Z,13.46
2022-10-22T04:07:36.846Z,15.25
2022-10-22T04:10:05.735Z,14.48
2022-10-22T04:12:33.803Z,13.47
2022-10-22T04:15:01.875Z,12.81
2022-10-22T04:17:35.073Z,12.38
2022-10-22T04:20:04.469Z,12.06
2022-10-22T04:22:36.506Z,11.79
2022-10-22T04:25:05.444Z,11.56
2022-10-22T04:27:34.654Z,11.35
2022-10-22T04:30:04.346Z,11.16
2022-10-22T04:32:32.401Z,10.99
2022-10-22T04:35:00.370Z,10.83
2022-10-22T04:37:28.544Z,10.69
2022-10-22T04:39:58.177Z,10.56
2022-10-22T04:42:26.530Z,10.46
2022-10-22T04:44:54.499Z,10.37
2022-10-22T04:47:22.468Z,10.30
2022-10-22T04:49:50.539Z,10.24
2022-10-22T04:52:18.508Z,10.19
2022-10-22T04:54:47.123Z,10.69
2022-10-22T04:57:15.119Z,13.54
2022-10-22T04:59:43.102Z,15.36
2022-10-22T05:02:11.100Z,14.53
2022-10-22T05:04:39.084Z,13.51
2022-10-22T05:07:07.143Z,12.82
2022-10-22T05:09:35.416Z,12.38
2022-10-22T05:12:03.590Z,12.05
2022-10-22T05:14:31.661Z,11.80
2022-10-22T05:17:00.040Z,11.57
2022-10-22T05:19:31.059Z,11.38
2022-10-22T05:22:01.415Z,11.18
2022-10-22T05:24:31.116Z,11.01
2022-10-22T05:27:00.314Z,10.84
2022-10-22T05:29:28.486Z,10.69
2022-10-22T05:31:56.557Z,10.56
2022-10-22T05:34:24.628Z,10.44
2022-10-22T05:36:52.597Z,10.91
2022-10-22T05:39:20.671Z,13.70
2022-10-22T05:41:48.740Z,15.28
2022-10-22T05:44:16.709Z,14.40
2022-10-22T05:46:44.781Z,13.37
2022-10-22T05:49:15.187Z,12.67
2022-10-22T05:51:43.584Z,12.18
2022-10-22T05:54:20.464Z,11.81
2022-10-22T05:56:48.762Z,11.50
2022-10-22T05:59:16.920Z,11.25
2022-10-22T06:01:45.062Z,11.05
2022-10-22T06:04:13.554Z,10.86
2022-10-22T06:06:45.191Z,10.68
2022-10-22T06:09:20.390Z,10.53
2022-10-22T06:11:49.355Z,10.41
2022-10-22T06:14:18.345Z,10.31
2022-10-22T06:16:47.237Z,10.22
2022-10-22T06:19:18.072Z,10.76
2022-10-22T06:21:46.956Z,13.57
2022-10-22T06:24:15.240Z,15.15
2022-10-22T06:26:43.309Z,14.31
2022-10-22T06:29:11.588Z,13.27
2022-10-22T06:31:39.657Z,12.57
2022-10-22T06:34:11.745Z,12.13
2022-10-22T06:36:42.981Z,11.81
2022-10-22T06:39:16.570Z,11.58
2022-10-22T06:41:44.742Z,11.38
2022-10-22T06:44:16.092Z,11.22
2022-10-22T06:46:44.263Z,11.09
2022-10-22T06:49:14.692Z,10.97
2022-10-22T06:51:42.967Z,10.85
2022-10-22T06:54:11.276Z,10.77
2022-10-22T06:56:39.313Z,10.71
2022-10-22T06:59:07.386Z,11.26
2022-10-22T07:01:36.127Z,14.04
2022-10-22T07:04:05.366Z,15.77
2022-10-22T07:06:33.351Z,14.98
2022-10-22T07:09:01.890Z,13.99
2022-10-22T07:11:38.903Z,13.31
2022-10-22T07:14:07.896Z,12.86
2022-10-22T07:16:36.479Z,12.56
2022-10-22T07:19:05.267Z,12.35
2022-10-22T07:21:33.250Z,12.16
2022-10-22T07:24:01.410Z,11.98
2022-10-22T07:26:32.752Z,11.84
2022-10-22T07:29:01.649Z,11.72
2022-10-22T07:31:29.926Z,11.62
2022-10-22T07:33:58.345Z,11.54
2022-10-22T07:36:26.477Z,11.48
2022-10-22T07:38:57.827Z,11.45
2022-10-22T07:41:28.155Z,11.43
2022-10-22T07:43:57.438Z,11.41
2022-10-22T07:46:26.516Z,11.95
2022-10-22T07:48:54.617Z,14.67
2022-10-22T07:51:23.302Z,16.50
2022-10-22T07:53:51.476Z,15.86
2022-10-22T07:56:19.551Z,14.86
2022-10-22T07:58:47.517Z,14.18
2022-10-22T08:01:15.642Z,13.71
2022-10-22T08:03:44.785Z,13.38
2022-10-22T08:06:14.868Z,13.13
2022-10-22T08:08:43.940Z,12.94
2022-10-22T08:11:12.617Z,12.80
2022-10-22T08:13:45.138Z,12.68
2022-10-22T08:16:14.672Z,12.58
2022-10-22T08:18:42.943Z,12.50
2022-10-22T08:21:12.967Z,12.41
2022-10-22T08:23:41.234Z,12.33
2022-10-22T08:26:09.911Z,12.26
2022-10-22T08:28:38.400Z,12.20
2022-10-22T08:31:08.431Z,12.15
2022-10-22T08:33:38.952Z,12.11
2022-10-22T08:36:08.259Z,12.08
2022-10-22T08:38:36.624Z,12.03
2022-10-22T08:41:13.347Z,12.01
2022-10-22T08:43:56.524Z,12.65
2022-10-22T08:46:30.333Z,15.86
2022-10-22T08:49:02.044Z,17.00
2022-10-22T08:51:34.742Z,16.00
2022-10-22T08:54:05.809Z,15.07
2022-10-22T08:56:37.365Z,14.48
2022-10-22T08:59:24.989Z,14.08
2022-10-22T09:01:54.488Z,13.78
2022-10-22T09:04:33.317Z,13.58
2022-10-22T09:07:01.302Z,13.41
2022-10-22T09:09:39.791Z,13.26
2022-10-22T09:12:10.435Z,13.14
2022-10-22T09:14:38.711Z,13.05
2022-10-22T09:17:38.724Z,12.98
2022-10-22T09:20:27.180Z,12.91
2022-10-22T09:23:01.503Z,12.88
2022-10-22T09:25:33.838Z,12.89
2022-10-22T09:28:02.965Z,12.93
2022-10-22T09:30:36.468Z,13.00
2022-10-22T09:33:07.302Z,13.07
2022-10-22T09:35:45.605Z,13.12
2022-10-22T09:38:16.043Z,13.17
2022-10-22T09:40:51.277Z,13.92
2022-10-22T09:43:20.271Z,16.85
2022-10-22T09:45:56.124Z,18.24
2022-10-22T09:48:32.289Z,17.33
2022-10-22T09:51:18.790Z,16.43
2022-10-22T09:53:56.180Z,15.86
2022-10-22T09:56:35.618Z,15.50
2022-10-22T09:59:04.712Z,15.24
2022-10-22T10:01:35.963Z,15.06
2022-10-22T10:04:09.564Z,14.91
2022-10-22T10:06:41.206Z,14.78
2022-10-22T10:09:17.449Z,14.68
2022-10-22T10:12:05.107Z,14.59
2022-10-22T10:14:45.363Z,14.48
2022-10-22T10:17:19.354Z,14.40
2022-10-22T10:20:18.472Z,14.33
2022-10-22T10:23:03.132Z,14.24
2022-10-22T10:26:06.329Z,14.19
2022-10-22T10:28:48.530Z,14.14
2022-10-22T10:31:40.259Z,14.11
2022-10-22T10:34:45.807Z,14.09
2022-10-22T10:37:25.368Z,14.06
2022-10-22T10:40:08.162Z,14.05
2022-10-22T10:43:08.593Z,14.04
2022-10-22T10:46:04.274Z,14.03
2022-10-22T10:48:58.497Z,14.02
2022-10-22T10:51:51.427Z,14.01
2022-10-22T10:54:35.651Z,14.00
2022-10-22T10:57:19.747Z,15.08
2022-10-22T11:00:17.002Z,18.21
2022-10-22T11:03:03.916Z,19.25
2022-10-22T11:06:04.043Z,18.04
2022-10-22T11:08:36.968Z,17.04
2022-10-22T11:11:11.884Z,16.53
2022-10-22T11:13:49.654Z,16.19
2022-10-22T11:16:23.664Z,15.90
2022-10-22T11:19:22.667Z,15.67
2022-10-22T11:22:06.400Z,15.44
2022-10-22T11:24:43.584Z,15.26
2022-10-22T11:27:47.039Z,15.11
2022-10-22T11:30:20.588Z,14.96
2022-10-22T11:32:58.794Z,14.85
2022-10-22T11:35:31.985Z,14.75
2022-10-22T11:38:02.104Z,14.67
2022-10-22T11:40:30.175Z,14.59
2022-10-22T11:43:04.393Z,14.52
2022-10-22T11:45:40.053Z,14.46
2022-10-22T11:48:11.183Z,14.40
2022-10-22T11:50:42.943Z,14.35
2022-10-22T11:53:13.606Z,15.27
2022-10-22T11:55:51.705Z,18.10
2022-10-22T11:58:30.809Z,18.95
2022-10-22T12:01:01.645Z,17.84
2022-10-22T12:03:32.384Z,16.99
2022-10-22T12:06:12.431Z,16.41
2022-10-22T12:08:50.596Z,15.99
2022-10-22T12:11:36.940Z,15.67
2022-10-22T12:14:20.043Z,15.40
2022-10-22T12:17:10.463Z,15.17
2022-10-22T12:19:40.371Z,14.97
2022-10-22T12:22:17.147Z,14.81
2022-10-22T12:24:49.621Z,14.67
2022-10-22T12:27:34.282Z,14.53
2022-10-22T12:30:18.429Z,14.40
2022-10-22T12:32:46.502Z,15.22
2022-10-22T12:35:26.861Z,17.99
2022-10-22T12:37:57.696Z,19.21
2022-10-22T12:40:27.304Z,18.18
2022-10-22T12:43:01.808Z,17.21
2022-10-22T12:45:33.278Z,16.55
2022-10-22T12:48:22.034Z,16.12
2022-10-22T12:50:53.490Z,15.75
2022-10-22T12:53:45.620Z,15.47
2022-10-22T12:56:16.558Z,15.23
2022-10-22T12:58:52.984Z,15.05
2022-10-22T13:01:21.408Z,14.89
2022-10-22T13:04:19.660Z,15.39
2022-10-22T13:06:50.931Z,18.52
2022-10-22T13:09:27.052Z,19.47
2022-10-22T13:12:01.817Z,18.33
2022-10-22T13:14:33.064Z,17.32
2022-10-22T13:17:36.361Z,16.66
2022-10-22T13:20:16.110Z,16.14
2022-10-22T13:23:00.437Z,16.50
2022-10-22T13:25:30.554Z,19.24
2022-10-22T13:28:13.395Z,19.84
2022-10-22T13:30:57.031Z,18.63
2022-10-22T13:33:29.738Z,17.57
2022-10-22T13:35:58.191Z,16.90
2022-10-22T13:38:28.106Z,16.41
2022-10-22T13:40:57.099Z,16.51
2022-10-22T13:43:25.862Z,18.81
2022-10-22T13:45:57.953Z,20.11
2022-10-22T13:48:28.378Z,19.13
2022-10-22T13:50:56.658Z,17.99
2022-10-22T13:53:27.900Z,17.19
2022-10-22T13:55:55.877Z,16.61
2022-10-22T13:58:25.293Z,16.98
2022-10-22T14:00:59.182Z,19.35
2022-10-22T14:03:32.165Z,20.19
2022-10-22T14:06:01.057Z,19.05
2022-10-22T14:08:29.336Z,17.98
2022-10-22T14:10:57.611Z,17.23
2022-10-22T14:13:26.912Z,16.68
2022-10-22T14:15:55.186Z,16.86
2022-10-22T14:18:31.690Z,19.19
2022-10-22T14:21:05.257Z,20.29
2022-10-22T14:23:35.559Z,19.17
2022-10-22T14:26:04.815Z,18.02
2022-10-22T14:28:40.951Z,17.21
2022-10-22T14:31:15.450Z,17.26
2022-10-22T14:33:44.043Z,19.45
2022-10-22T14:36:14.680Z,20.19
2022-10-22T14:38:46.231Z,19.06
2022-10-22T14:41:21.161Z,17.96
2022-10-22T14:43:50.013Z,17.17
2022-10-22T14:46:19.234Z,17.17
2022-10-22T14:48:47.729Z,19.36
2022-10-22T14:51:18.770Z,20.29
2022-10-22T14:53:47.763Z,19.20
2022-10-22T14:56:18.702Z,18.10
2022-10-22T14:58:46.874Z,17.31
2022-10-22T15:01:15.177Z,16.82
2022-10-22T15:03:43.323Z,18.19
2022-10-22T15:06:11.805Z,20.11
2022-10-22T15:08:39.908Z,19.60
2022-10-22T15:11:11.326Z,18.42
2022-10-22T15:13:41.549Z,17.49
2022-10-22T15:16:11.769Z,16.87
2022-10-22T15:18:39.843Z,17.83
2022-10-22T15:21:17.948Z,20.00
2022-10-22T15:23:46.024Z,19.93
2022-10-22T15:26:14.705Z,18.74
2022-10-22T15:28:43.338Z,17.78
2022-10-22T15:31:14.427Z,17.11
2022-10-22T15:33:43.848Z,17.88
2022-10-22T15:36:14.875Z,20.10
2022-10-22T15:38:43.317Z,20.12
2022-10-22T15:41:13.593Z,18.92
2022-10-22T15:43:42.470Z,17.92
2022-10-22T15:46:14.449Z,17.23
2022-10-22T15:48:43.320Z,17.55
2022-10-22T15:51:17.024Z,19.83
2022-10-22T15:53:52.571Z,20.36
2022-10-22T15:56:20.867Z,19.10
2022-10-22T15:58:54.243Z,18.04
2022-10-22T16:01:22.779Z,17.30
2022-10-22T16:04:00.379Z,18.19
2022-10-22T16:06:36.479Z,20.37
2022-10-22T16:09:08.468Z,20.06
2022-10-22T16:11:37.967Z,18.79
2022-10-22T16:14:06.637Z,17.80
2022-10-22T16:16:36.857Z,17.68
2022-10-22T16:19:04.939Z,19.81
2022-10-22T16:21:32.997Z,20.60
2022-10-22T16:24:06.133Z,19.43
2022-10-22T16:26:35.898Z,18.23
2022-10-22T16:29:05.507Z,17.38
2022-10-22T16:31:33.580Z,17.87
2022-10-22T16:34:01.646Z,20.04
2022-10-22T16:36:29.721Z,20.34
2022-10-22T16:38:57.715Z,19.10
2022-10-22T16:41:33.949Z,17.98
2022-10-22T16:44:05.198Z,17.33
2022-10-22T16:46:34.323Z,18.83
2022-10-22T16:49:02.569Z,20.27
2022-10-22T16:51:30.640Z,19.45
2022-10-22T16:53:58.916Z,18.23
2022-10-22T16:56:27.470Z,17.28
2022-10-22T16:58:57.721Z,17.60
2022-10-22T17:01:29.173Z,19.77
2022-10-22T17:04:00.491Z,20.48
2022-10-22T17:06:29.194Z,19.24
2022-10-22T17:08:57.356Z,17.99
2022-10-22T17:11:25.654Z,17.33
2022-10-22T17:13:54.835Z,18.95
2022-10-22T17:16:24.776Z,20.31
2022-10-22T17:18:56.321Z,19.30
2022-10-22T17:21:25.121Z,17.96
2022-10-22T17:23:57.394Z,17.04
2022-10-22T17:26:27.113Z,18.21
2022-10-22T17:28:55.672Z,20.20
2022-10-22T17:31:29.476Z,19.92
2022-10-22T17:33:57.959Z,18.52
2022-10-22T17:36:30.444Z,17.40
2022-10-22T17:39:05.675Z,17.54
2022-10-22T17:41:36.917Z,19.80
2022-10-22T17:44:09.294Z,20.34
2022-10-22T17:46:37.979Z,19.02
2022-10-22T17:49:13.306Z,17.79
2022-10-22T17:51:41.490Z,16.99
2022-10-22T17:54:10.199Z,18.43
2022-10-22T17:56:40.394Z,20.30
2022-10-22T17:59:12.875Z,19.77
2022-10-22T18:01:45.777Z,18.38
2022-10-22T18:04:17.005Z,17.31
2022-10-22T18:06:47.226Z,17.86
2022-10-22T18:09:18.657Z,20.06
2022-10-22T18:11:49.617Z,20.21
2022-10-22T18:14:19.631Z,18.76
2022-10-22T18:16:48.213Z,17.60
2022-10-22T18:19:19.870Z,17.65
2022-10-22T18:21:48.145Z,19.86
2022-10-22T18:24:17.285Z,20.49
2022-10-22T18:26:45.516Z,19.20
2022-10-22T18:29:18.605Z,17.95
2022-10-22T18:31:47.983Z,17.68
2022-10-22T18:34:18.891Z,19.72
2022-10-22T18:36:49.753Z,20.57
2022-10-22T18:39:18.335Z,19.27
2022-10-22T18:41:48.996Z,17.88
2022-10-22T18:44:18.174Z,17.55
2022-10-22T18:46:46.266Z,19.48
2022-10-22T18:49:21.096Z,20.46
2022-10-22T18:51:52.837Z,19.27
2022-10-22T18:54:23.668Z,17.90
2022-10-22T18:57:02.577Z,17.58
2022-10-22T18:59:31.610Z,19.58
2022-10-22T19:01:59.876Z,20.44
2022-10-22T19:04:33.766Z,19.22
2022-10-22T19:07:01.876Z,17.87
2022-10-22T19:09:30.655Z,17.56
2022-10-22T19:12:00.261Z,19.59
2022-10-22T19:14:28.433Z,20.47
2022-10-22T19:16:56.811Z,19.23
2022-10-22T19:19:24.882Z,17.92
2022-10-22T19:21:53.543Z,17.61
2022-10-22T19:24:21.643Z,19.58
2022-10-22T19:26:50.331Z,20.52
2022-10-22T19:29:20.342Z,19.31
2022-10-22T19:31:51.014Z,17.92
2022-10-22T19:34:20.784Z,17.55
2022-10-22T19:36:51.811Z,19.46
2022-10-22T19:39:20.491Z,20.40
2022-10-22T19:41:48.686Z,19.21
2022-10-22T19:44:16.859Z,17.84
2022-10-22T19:46:45.036Z,17.43
2022-10-22T19:49:16.542Z,19.19
2022-10-22T19:51:47.115Z,20.04
2022-10-22T19:54:18.678Z,18.88
2022-10-22T19:56:47.972Z,17.48
2022-10-22T19:59:16.949Z,17.82
2022-10-22T20:01:45.036Z,19.81
2022-10-22T20:04:16.073Z,20.28
2022-10-22T20:06:44.459Z,18.80
2022-10-22T20:09:13.373Z,17.45
2022-10-22T20:11:41.617Z,17.14
2022-10-22T20:14:09.689Z,18.93
2022-10-22T20:16:38.485Z,20.17
2022-10-22T20:19:07.825Z,19.67
2022-10-22T20:21:35.848Z,18.20
2022-10-22T20:24:04.594Z,17.00
2022-10-22T20:26:32.710Z,17.21
2022-10-22T20:29:00.983Z,19.21
2022-10-22T20:31:33.069Z,19.85
2022-10-22T20:34:02.045Z,18.54
2022-10-22T20:36:31.894Z,17.25
2022-10-22T20:39:03.193Z,17.08
2022-10-22T20:41:31.274Z,19.11
2022-10-22T20:43:59.243Z,20.08
2022-10-22T20:46:30.990Z,19.26
2022-10-22T20:49:00.300Z,17.87
2022-10-22T20:51:28.991Z,16.99
2022-10-22T20:53:57.433Z,18.40
2022-10-22T20:56:26.767Z,19.96
2022-10-22T20:59:04.691Z,19.83
2022-10-22T21:01:34.381Z,18.22
2022-10-22T21:04:02.461Z,17.06
2022-10-22T21:06:30.623Z,17.61
2022-10-22T21:08:58.759Z,19.49
2022-10-22T21:11:26.972Z,20.16
2022-10-22T21:13:54.939Z,18.87
2022-10-22T21:16:23.320Z,17.52
2022-10-22T21:18:51.697Z,17.22
2022-10-22T21:21:20.177Z,18.99
2022-10-22T21:23:50.314Z,20.16
2022-10-22T21:26:20.108Z,19.49
2022-10-22T21:28:48.389Z,17.99
2022-10-22T21:31:26.194Z,17.45
2022-10-22T21:33:54.462Z,19.06
2022-10-22T21:36:23.719Z,20.29
2022-10-22T21:38:52.672Z,19.51
2022-10-22T21:41:22.977Z,18.08
2022-10-22T21:43:51.879Z,17.58
2022-10-22T21:46:22.292Z,19.37
2022-10-22T21:49:01.323Z,20.26
2022-10-22T21:51:35.639Z,18.93
2022-10-22T21:54:03.830Z,17.55
2022-10-22T21:56:34.855Z,17.37
2022-10-22T21:59:04.869Z,19.37
2022-10-22T22:01:33.975Z,20.34
2022-10-22T22:04:02.752Z,19.16
2022-10-22T22:06:33.511Z,17.84
2022-10-22T22:09:04.158Z,17.47
2022-10-22T22:11:32.808Z,19.27
2022-10-22T22:14:01.080Z,19.98
2022-10-22T22:16:32.226Z,18.80
2022-10-22T22:21:32.256Z,17.25
2022-10-22T22:24:00.329Z,19.12
2022-10-22T22:26:30.197Z,20.30
2022-10-22T22:28:59.965Z,19.51
2022-10-22T22:31:37.652Z,18.06
2022-10-22T22:34:12.992Z,17.59
2022-10-22T22:36:43.622Z,19.51
2022-10-22T22:39:14.486Z,20.34
2022-10-22T22:41:43.656Z,19.06
2022-10-22T22:44:12.849Z,17.63
2022-10-22T22:46:41.232Z,17.28
2022-10-22T22:49:09.817Z,19.03
2022-10-22T22:51:37.887Z,20.11
2022-10-22T22:54:05.863Z,19.17
2022-10-22T22:56:34.814Z,17.78
2022-10-22T22:59:04.148Z,17.61
2022-10-22T23:01:37.957Z,19.46
2022-10-22T23:04:16.488Z,20.16
2022-10-22T23:06:45.452Z,18.86
2022-10-22T23:09:15.452Z,17.51
2022-10-22T23:11:45.293Z,17.31
2022-10-22T23:14:15.719Z,19.11
2022-10-22T23:16:49.423Z,20.24
2022-10-22T23:19:20.261Z,19.41
2022-10-22T23:21:54.268Z,18.02
2022-10-22T23:24:28.970Z,17.74
2022-10-22T23:27:01.139Z,19.61
2022-10-22T23:29:31.900Z,20.35
2022-10-22T23:32:01.712Z,19.02
2022-10-22T23:34:31.611Z,17.64
2022-10-22T23:37:00.339Z,17.41
2022-10-22T23:39:29.256Z,19.16
2022-10-22T23:41:58.072Z,20.32
2022-10-22T23:44:26.472Z,19.43
2022-10-22T23:46:55.363Z,18.06
2022-10-22T23:49:23.435Z,17.65
2022-10-22T23:51:51.402Z,19.44
2022-10-22T23:54:19.470Z,20.34
2022-10-22T23:56:47.544Z,19.22
2022-10-22T23:59:16.284Z,17.89
